createdAt,value
2019-06-08T00:01:12.533Z,8.50
2019-06-08T00:03:41.864Z,8.00
2019-06-08T00:06:12.502Z,8.80
2019-06-08T00:08:42.131Z,11.23
2019-06-08T00:11:12.694Z,9.47
2019-06-08T00:13:42.131Z,16.80
2019-06-08T00:16:11.526Z,8.60
2019-06-08T00:18:40.935Z,9.03
2019-06-08T00:21:10.307Z,7.93
2019-06-08T00:23:39.688Z,8.53
2019-06-08T00:26:09.032Z,8.10
2019-06-08T00:28:38.432Z,8.30
2019-06-08T00:31:07.812Z,8.40
2019-06-08T00:33:37.259Z,8.60
2019-06-08T00:36:06.674Z,8.23
2019-06-08T00:38:36.084Z,8.33
2019-06-08T00:41:05.452Z,8.23
2019-06-08T00:43:35.056Z,8.47
2019-06-08T00:46:04.452Z,9.50
2019-06-08T00:48:33.795Z,8.47
2019-06-08T00:51:03.161Z,8.80
2019-06-08T00:53:32.525Z,8.10
2019-06-08T00:56:01.898Z,8.57
2019-06-08T00:58:31.261Z,8.63
2019-06-08T01:01:00.609Z,8.37
2019-06-08T01:03:30.079Z,8.50
2019-06-08T01:05:59.432Z,9.10
2019-06-08T01:08:29.330Z,8.73
2019-06-08T01:10:58.847Z,8.73
2019-06-08T01:13:28.974Z,8.40
2019-06-08T01:15:58.403Z,9.10
2019-06-08T01:18:27.748Z,8.67
2019-06-08T01:20:57.125Z,8.97
2019-06-08T01:23:27.876Z,8.77
2019-06-08T01:25:57.256Z,9.13
2019-06-08T01:28:26.632Z,8.80
2019-06-08T01:30:55.981Z,8.27
2019-06-08T01:33:26.608Z,7.93
2019-06-08T01:35:56.131Z,8.13
2019-06-08T01:38:25.503Z,8.27
2019-06-08T01:40:54.909Z,8.47
2019-06-08T01:43:25.712Z,8.73
2019-06-08T01:45:55.261Z,8.43
2019-06-08T01:48:24.632Z,8.40
2019-06-08T01:50:54.125Z,9.13
2019-06-08T01:53:24.602Z,8.60
2019-06-08T01:55:54.028Z,8.80
2019-06-08T01:58:23.486Z,9.13
2019-06-08T02:00:52.930Z,8.30
2019-06-08T02:03:23.776Z,9.43
2019-06-08T02:05:53.224Z,8.97
2019-06-08T02:08:22.637Z,9.27
2019-06-08T02:10:52.048Z,9.50
2019-06-08T02:13:21.448Z,9.17
2019-06-08T02:15:50.872Z,9.17
2019-06-08T02:18:35.367Z,9.00
2019-06-08T02:20:51.363Z,10.40
2019-06-08T02:23:20.720Z,10.03
2019-06-08T02:25:50.117Z,10.27
2019-06-08T02:28:19.525Z,9.13
2019-06-08T02:30:48.889Z,9.60
2019-06-08T02:33:18.279Z,9.40
2019-06-08T02:35:47.755Z,10.40
2019-06-08T02:38:17.105Z,9.33
2019-06-08T02:40:46.510Z,9.33
2019-06-08T02:43:15.894Z,8.80
2019-06-08T02:45:45.288Z,9.30
2019-06-08T02:48:14.660Z,10.03
2019-06-08T02:50:55.391Z,19.50
2019-06-08T02:53:25.756Z,9.83
2019-06-08T02:55:55.850Z,9.43
2019-06-08T02:58:25.725Z,9.60
2019-06-08T03:00:56.247Z,9.67
2019-06-08T03:03:27.327Z,9.73
2019-06-08T03:05:59.667Z,9.67
2019-06-08T03:08:32.291Z,15.53
2019-06-08T03:11:03.909Z,9.20
2019-06-08T03:13:35.654Z,10.30
2019-06-08T03:16:05.491Z,10.13
2019-06-08T03:18:35.875Z,10.17
2019-06-08T03:21:05.803Z,10.70
2019-06-08T03:23:36.281Z,9.97
2019-06-08T03:26:05.869Z,10.20
2019-06-08T03:28:37.145Z,10.70
2019-06-08T03:31:06.390Z,11.20
2019-06-08T03:33:40.051Z,10.37
2019-06-08T03:36:06.815Z,9.93
2019-06-08T03:38:37.505Z,10.60
2019-06-08T03:41:07.131Z,10.17
2019-06-08T03:43:37.599Z,10.80
2019-06-08T03:46:07.635Z,10.10
2019-06-08T03:48:37.855Z,10.23
2019-06-08T03:51:08.109Z,9.87
2019-06-08T03:53:38.370Z,10.43
2019-06-08T03:56:08.562Z,10.07
2019-06-08T03:58:38.523Z,10.37
2019-06-08T04:01:09.101Z,10.10
2019-06-08T04:03:39.948Z,10.97
2019-06-08T04:06:09.656Z,11.47
2019-06-08T04:08:40.902Z,10.57
2019-06-08T04:11:10.253Z,11.20
2019-06-08T04:13:39.907Z,11.27
2019-06-08T04:16:09.544Z,11.37
2019-06-08T04:18:40.271Z,11.77
2019-06-08T04:21:09.967Z,11.63
2019-06-08T04:23:40.571Z,11.63
2019-06-08T04:26:10.529Z,12.03
2019-06-08T04:28:40.553Z,11.97
2019-06-08T04:31:10.102Z,12.67
2019-06-08T04:33:40.238Z,11.57
2019-06-08T04:36:10.524Z,11.83
2019-06-08T04:38:41.317Z,12.20
2019-06-08T04:41:11.175Z,11.57
2019-06-08T04:43:42.863Z,11.90
2019-06-08T04:46:13.006Z,10.90
2019-06-08T04:48:43.015Z,11.57
2019-06-08T04:51:13.481Z,11.40
2019-06-08T04:53:43.661Z,11.90
2019-06-08T04:56:14.005Z,11.80
2019-06-08T04:58:46.006Z,12.27
2019-06-08T05:01:14.564Z,12.23
2019-06-08T05:03:45.579Z,12.37
2019-06-08T05:06:15.069Z,12.30
2019-06-08T05:08:45.231Z,12.10
2019-06-08T05:11:14.902Z,12.53
2019-06-08T05:13:45.368Z,11.33
2019-06-08T05:16:14.791Z,17.50
2019-06-08T05:18:45.287Z,11.53
2019-06-08T05:21:14.843Z,11.57
2019-06-08T05:23:45.548Z,11.90
2019-06-08T05:26:15.284Z,11.43
2019-06-08T05:28:45.261Z,11.40
2019-06-08T05:31:14.720Z,12.00
2019-06-08T05:33:45.467Z,11.90
2019-06-08T05:36:14.989Z,17.60
2019-06-08T05:38:45.617Z,13.00
2019-06-08T05:41:15.151Z,11.70
2019-06-08T05:43:45.619Z,11.33
2019-06-08T05:46:15.085Z,12.33
2019-06-08T05:48:45.807Z,12.50
2019-06-08T05:51:15.362Z,12.27
2019-06-08T05:53:45.760Z,12.40
2019-06-08T05:56:17.454Z,11.53
2019-06-08T05:58:48.048Z,11.70
2019-06-08T06:01:17.461Z,11.53
2019-06-08T06:03:46.873Z,12.17
2019-06-08T06:06:16.239Z,11.37
2019-06-08T06:08:46.608Z,12.33
2019-06-08T06:11:16.034Z,11.17
2019-06-08T06:13:45.405Z,11.50
2019-06-08T06:16:14.827Z,10.90
2019-06-08T06:18:44.987Z,10.07
2019-06-08T06:21:14.779Z,10.00
2019-06-08T06:23:45.220Z,9.90
2019-06-08T06:26:14.824Z,9.83
2019-06-08T06:28:45.629Z,10.53
2019-06-08T06:31:14.984Z,9.40
2019-06-08T06:33:45.903Z,9.73
2019-06-08T06:36:15.395Z,9.68
2019-06-08T06:38:45.901Z,10.27
2019-06-08T06:41:16.146Z,9.87
2019-06-08T06:43:45.844Z,8.63
2019-06-08T06:46:15.826Z,10.50
2019-06-08T06:48:46.125Z,11.12
2019-06-08T06:51:25.597Z,9.88
2019-06-08T06:53:46.511Z,10.43
2019-06-08T06:56:15.913Z,11.73
2019-06-08T06:58:45.323Z,10.90
2019-06-08T07:01:14.759Z,10.90
2019-06-08T07:03:44.280Z,14.40
2019-06-08T07:06:15.420Z,10.80
2019-06-08T07:08:46.185Z,9.83
2019-06-08T07:11:15.559Z,8.85
2019-06-08T07:13:44.957Z,10.28
2019-06-08T07:16:18.314Z,10.43
2019-06-08T07:18:46.176Z,10.18
2019-06-08T07:21:15.658Z,9.40
2019-06-08T07:23:46.258Z,10.05
2019-06-08T07:26:15.710Z,10.23
2019-06-08T07:28:46.218Z,9.65
2019-06-08T07:31:16.185Z,9.35
2019-06-08T07:33:46.779Z,9.43
2019-06-08T07:36:16.795Z,10.35
2019-06-08T07:38:47.023Z,10.03
2019-06-08T07:41:17.674Z,9.80
2019-06-08T07:43:47.987Z,9.95
2019-06-08T07:46:18.095Z,9.73
2019-06-08T07:48:48.108Z,9.40
2019-06-08T07:51:17.674Z,10.13
2019-06-08T07:53:48.089Z,10.38
2019-06-08T07:56:17.903Z,9.70
2019-06-08T07:58:49.542Z,9.70
2019-06-08T08:01:18.396Z,10.20
2019-06-08T08:03:47.995Z,9.25
2019-06-08T08:06:17.327Z,9.63
2019-06-08T08:08:46.710Z,9.60
2019-06-08T08:11:16.077Z,9.75
2019-06-08T08:13:45.468Z,9.75
2019-06-08T08:16:14.825Z,8.88
2019-06-08T08:18:44.199Z,8.88
2019-06-08T08:21:22.134Z,9.00
2019-06-08T08:23:44.755Z,8.08
2019-06-08T08:26:14.165Z,8.60
2019-06-08T08:28:43.577Z,8.73
2019-06-08T08:31:15.251Z,8.18
2019-06-08T08:33:44.116Z,7.33
2019-06-08T08:36:13.480Z,7.30
2019-06-08T08:38:42.862Z,6.92
2019-06-08T08:41:12.236Z,6.50
2019-06-08T08:43:41.585Z,5.95
2019-06-08T08:46:11.028Z,5.40
2019-06-08T08:48:40.464Z,4.87
2019-06-08T08:51:09.809Z,4.45
2019-06-08T08:53:39.285Z,4.78
2019-06-08T08:56:08.660Z,4.62
2019-06-08T08:58:38.188Z,4.60
2019-06-08T09:01:08.230Z,4.33
2019-06-08T09:03:39.610Z,4.35
2019-06-08T09:06:08.887Z,3.92
2019-06-08T09:08:38.263Z,3.80
2019-06-08T09:11:08.306Z,4.30
2019-06-08T09:13:37.866Z,3.80
2019-06-08T09:16:08.133Z,3.98
2019-06-08T09:18:37.765Z,3.83
2019-06-08T09:21:08.429Z,4.30
2019-06-08T09:23:38.066Z,4.30
2019-06-08T09:26:12.434Z,4.10
2019-06-08T09:28:38.990Z,3.42
2019-06-08T09:31:10.386Z,3.95
2019-06-08T09:33:39.649Z,3.98
2019-06-08T09:36:09.072Z,3.67
2019-06-08T09:38:39.072Z,3.72
2019-06-08T09:41:09.098Z,3.80
2019-06-08T09:43:38.958Z,3.75
2019-06-08T09:46:09.413Z,3.50
2019-06-08T09:48:39.105Z,3.02
2019-06-08T09:51:09.268Z,3.58
2019-06-08T09:53:41.638Z,3.40
2019-06-08T09:56:10.482Z,3.37
2019-06-08T09:58:40.163Z,3.55
2019-06-08T10:01:12.346Z,3.67
2019-06-08T10:03:40.647Z,3.20
2019-06-08T10:06:12.297Z,3.42
2019-06-08T10:08:41.148Z,4.12
2019-06-08T10:11:10.534Z,2.65
2019-06-08T10:13:43.280Z,2.87
2019-06-08T10:16:11.120Z,3.00
2019-06-08T10:18:40.581Z,3.52
2019-06-08T10:21:10.243Z,3.62
2019-06-08T10:23:41.748Z,3.00
2019-06-08T10:26:11.557Z,2.90
2019-06-08T10:28:40.916Z,2.70
2019-06-08T10:31:10.411Z,3.15
2019-06-08T10:33:40.536Z,3.12
2019-06-08T10:36:12.904Z,3.60
2019-06-08T10:38:41.614Z,3.52
2019-06-08T10:41:17.772Z,3.83
2019-06-08T10:43:42.263Z,3.25
2019-06-08T10:46:16.555Z,3.40
2019-06-08T10:48:42.755Z,3.00
2019-06-08T10:51:13.053Z,14.05
2019-06-08T10:53:49.031Z,3.92
2019-06-08T10:56:13.889Z,3.95
2019-06-08T10:58:43.399Z,3.25
2019-06-08T11:01:13.467Z,3.22
2019-06-08T11:03:43.190Z,2.90
2019-06-08T11:06:13.420Z,3.35
2019-06-08T11:08:43.158Z,3.50
2019-06-08T11:11:19.446Z,3.08
2019-06-08T11:13:50.160Z,4.05
2019-06-08T11:16:18.365Z,3.25
2019-06-08T11:18:48.826Z,3.20
2019-06-08T11:21:19.106Z,3.62
2019-06-08T11:24:04.578Z,3.52
2019-06-08T11:26:24.274Z,3.22
2019-06-08T11:28:51.388Z,3.00
2019-06-08T11:31:20.816Z,3.02
2019-06-08T11:33:50.177Z,3.37
2019-06-08T11:36:19.608Z,3.30
2019-06-08T11:38:49.044Z,3.55
2019-06-08T11:41:22.594Z,3.30
2019-06-08T11:43:49.590Z,3.30
2019-06-08T11:46:21.779Z,3.70
2019-06-08T11:48:50.153Z,3.10
2019-06-08T11:51:19.535Z,3.20
2019-06-08T11:53:51.980Z,3.12
2019-06-08T11:56:20.109Z,4.15
2019-06-08T11:58:49.679Z,3.33
2019-06-08T12:01:19.111Z,3.55
2019-06-08T12:03:48.503Z,3.17
2019-06-08T12:06:18.597Z,3.42
2019-06-08T12:08:48.119Z,3.35
2019-06-08T12:11:19.744Z,3.85
2019-06-08T12:13:48.634Z,3.40
2019-06-08T12:16:21.925Z,3.15
2019-06-08T12:18:49.476Z,3.40
2019-06-08T12:21:18.959Z,3.50
2019-06-08T12:23:48.379Z,3.50
2019-06-08T12:26:17.770Z,3.12
2019-06-08T12:28:48.642Z,3.67
2019-06-08T12:31:22.255Z,2.80
2019-06-08T12:33:49.370Z,3.50
2019-06-08T12:36:20.693Z,3.60
2019-06-08T12:38:49.923Z,3.42
2019-06-08T12:41:19.477Z,3.55
2019-06-08T12:43:48.911Z,3.00
2019-06-08T12:46:20.885Z,3.35
2019-06-08T12:48:49.397Z,2.98
2019-06-08T12:51:19.952Z,4.97
2019-06-08T12:53:49.877Z,3.27
2019-06-08T12:56:23.819Z,3.95
2019-06-08T12:58:50.337Z,3.58
2019-06-08T13:01:19.731Z,3.60
2019-06-08T13:03:49.096Z,3.45
2019-06-08T13:06:19.944Z,3.87
2019-06-08T13:08:49.524Z,3.72
2019-06-08T13:11:21.114Z,3.80
2019-06-08T13:13:50.039Z,3.60
2019-06-08T13:16:23.639Z,3.35
2019-06-08T13:18:50.589Z,3.87
2019-06-08T13:21:33.281Z,3.67
2019-06-08T13:23:51.089Z,3.95
2019-06-08T13:26:27.446Z,4.17
2019-06-08T13:28:51.557Z,4.25
2019-06-08T13:31:24.201Z,4.35
2019-06-08T13:33:52.062Z,4.12
2019-06-08T13:36:26.043Z,3.90
2019-06-08T13:38:52.579Z,3.67
2019-06-08T13:41:25.952Z,3.72
2019-06-08T13:43:53.319Z,3.55
2019-06-08T13:46:23.722Z,4.42
2019-06-08T13:48:53.223Z,3.90
2019-06-08T13:51:24.110Z,4.25
2019-06-08T13:53:53.667Z,3.87
2019-06-08T13:56:24.061Z,3.65
2019-06-08T13:58:53.515Z,3.52
2019-06-08T14:01:23.782Z,4.15
2019-06-08T14:03:53.732Z,4.75
2019-06-08T14:06:23.751Z,4.08
2019-06-08T14:08:54.405Z,3.40
2019-06-08T14:11:25.044Z,3.17
2019-06-08T14:13:54.921Z,3.75
2019-06-08T14:16:25.347Z,4.10
2019-06-08T14:18:55.481Z,3.95
2019-06-08T14:21:36.707Z,3.60
2019-06-08T14:23:55.970Z,4.20
2019-06-08T14:26:25.967Z,3.10
2019-06-08T14:28:55.407Z,3.12
2019-06-08T14:31:25.592Z,3.17
2019-06-08T14:33:56.030Z,3.58
2019-06-08T14:36:26.672Z,3.75
2019-06-08T14:39:02.048Z,3.77
2019-06-08T14:41:31.172Z,3.60
2019-06-08T14:43:58.737Z,3.87
2019-06-08T14:46:28.749Z,3.45
2019-06-08T14:48:58.737Z,3.90
2019-06-08T14:51:47.791Z,3.77
2019-06-08T14:54:20.860Z,4.03
2019-06-08T14:56:48.823Z,3.80
2019-06-08T14:59:20.145Z,3.90
2019-06-08T15:01:49.513Z,3.42
2019-06-08T15:04:23.175Z,3.72
2019-06-08T15:06:50.043Z,4.65
2019-06-08T15:09:19.525Z,4.47
2019-06-08T15:11:49.000Z,4.35
2019-06-08T15:14:22.153Z,4.03
2019-06-08T15:16:51.607Z,3.65
2019-06-08T15:19:22.119Z,4.03
2019-06-08T15:21:51.614Z,4.30
2019-06-08T15:24:21.027Z,3.85
2019-06-08T15:26:50.381Z,4.08
2019-06-08T15:29:20.802Z,3.20
2019-06-08T15:31:50.286Z,3.87
2019-06-08T15:34:21.135Z,4.15
2019-06-08T15:36:50.671Z,5.05
2019-06-08T15:39:21.643Z,4.42
2019-06-08T15:41:51.230Z,4.15
2019-06-08T15:44:22.654Z,3.80
2019-06-08T15:46:51.701Z,3.72
2019-06-08T15:49:22.170Z,4.25
2019-06-08T15:51:51.842Z,3.83
2019-06-08T15:54:22.559Z,3.80
2019-06-08T15:56:52.411Z,3.98
2019-06-08T15:59:23.148Z,3.72
2019-06-08T16:01:52.538Z,4.10
2019-06-08T16:04:23.336Z,4.87
2019-06-08T16:06:52.951Z,4.00
2019-06-08T16:09:23.883Z,4.60
2019-06-08T16:11:53.409Z,4.80
2019-06-08T16:14:22.780Z,3.67
2019-06-08T16:16:52.187Z,4.17
2019-06-08T16:19:21.626Z,4.15
2019-06-08T16:21:51.100Z,4.12
2019-06-08T16:24:20.488Z,4.30
2019-06-08T16:26:53.184Z,4.42
2019-06-08T16:29:21.058Z,3.92
2019-06-08T16:31:50.433Z,3.85
2019-06-08T16:34:19.825Z,4.70
2019-06-08T16:36:49.252Z,4.00
2019-06-08T16:39:18.648Z,5.00
2019-06-08T16:41:48.016Z,4.70
2019-06-08T16:44:17.469Z,4.87
2019-06-08T16:46:46.913Z,4.12
2019-06-08T16:49:16.345Z,4.20
2019-06-08T16:51:45.770Z,4.15
2019-06-08T16:54:15.169Z,4.60
2019-06-08T16:56:44.542Z,4.42
2019-06-08T16:59:13.933Z,4.05
2019-06-08T17:01:43.309Z,4.65
2019-06-08T17:04:12.713Z,4.67
2019-06-08T17:06:44.227Z,4.15
2019-06-08T17:09:13.999Z,5.08
2019-06-08T17:11:43.424Z,4.53
2019-06-08T17:14:12.863Z,4.70
2019-06-08T17:16:42.189Z,5.00
2019-06-08T17:19:11.672Z,4.50
2019-06-08T17:21:41.104Z,4.75
2019-06-08T17:24:10.458Z,4.67
2019-06-08T17:26:40.766Z,4.75
2019-06-08T17:29:10.543Z,4.37
2019-06-08T17:31:41.299Z,4.37
2019-06-08T17:34:10.830Z,3.92
2019-06-08T17:36:40.714Z,4.90
2019-06-08T17:39:10.199Z,4.33
2019-06-08T17:41:40.170Z,4.83
2019-06-08T17:44:09.674Z,4.50
2019-06-08T17:46:41.067Z,4.85
2019-06-08T17:49:10.234Z,4.30
2019-06-08T17:51:41.674Z,4.75
2019-06-08T17:54:10.898Z,4.78
2019-06-08T17:56:41.253Z,4.62
2019-06-08T17:59:10.782Z,4.92
2019-06-08T18:01:41.652Z,5.22
2019-06-08T18:04:11.180Z,4.97
2019-06-08T18:06:41.805Z,5.10
2019-06-08T18:09:11.645Z,5.03
2019-06-08T18:11:43.530Z,5.03
2019-06-08T18:14:13.513Z,5.33
2019-06-08T18:16:44.058Z,5.25
2019-06-08T18:19:28.476Z,5.37
2019-06-08T18:22:04.373Z,5.25
2019-06-08T18:24:29.367Z,4.80
2019-06-08T18:26:59.782Z,5.15
2019-06-08T18:29:29.234Z,4.33
2019-06-08T18:31:58.628Z,5.47
2019-06-08T18:34:28.737Z,4.95
2019-06-08T18:36:58.350Z,4.67
2019-06-08T18:39:30.477Z,4.72
2019-06-08T18:42:01.304Z,5.15
2019-06-08T18:44:30.982Z,4.80
2019-06-08T18:47:00.331Z,4.90
2019-06-08T18:49:29.713Z,4.92
2019-06-08T18:51:59.386Z,4.70
2019-06-08T18:54:28.900Z,4.33
2019-06-08T18:56:58.279Z,4.92
2019-06-08T18:59:28.675Z,4.62
2019-06-08T19:01:58.205Z,4.17
2019-06-08T19:04:30.943Z,4.60
2019-06-08T19:07:01.926Z,4.80
2019-06-08T19:09:32.475Z,3.90
2019-06-08T19:12:02.043Z,5.50
2019-06-08T19:14:31.454Z,4.50
2019-06-08T19:17:00.900Z,4.87
2019-06-08T19:19:31.485Z,4.45
2019-06-08T19:22:01.168Z,5.00
2019-06-08T19:24:30.555Z,3.87
2019-06-08T19:27:00.028Z,4.53
2019-06-08T19:29:29.494Z,4.17
2019-06-08T19:32:00.482Z,5.17
2019-06-08T19:34:33.182Z,4.75
2019-06-08T19:37:01.151Z,4.55
2019-06-08T19:39:32.006Z,6.42
2019-06-08T19:42:01.380Z,4.80
2019-06-08T19:44:30.922Z,4.77
2019-06-08T19:47:00.308Z,4.90
2019-06-08T19:49:30.044Z,4.92
2019-06-08T19:51:59.692Z,5.33
2019-06-08T19:54:29.073Z,5.53
2019-06-08T19:57:00.678Z,4.40
2019-06-08T19:59:30.035Z,5.20
2019-06-08T20:01:59.998Z,5.05
2019-06-08T20:04:29.578Z,5.42
2019-06-08T20:07:00.704Z,4.50
2019-06-08T20:09:30.239Z,5.25
2019-06-08T20:12:00.307Z,4.62
2019-06-08T20:14:29.840Z,4.75
2019-06-08T20:16:59.240Z,5.47
2019-06-08T20:19:29.220Z,4.42
2019-06-08T20:21:58.618Z,5.00
2019-06-08T20:24:28.284Z,5.25
2019-06-08T20:26:57.777Z,4.97
2019-06-08T20:29:28.220Z,4.78
2019-06-08T20:31:58.522Z,4.35
2019-06-08T20:34:28.166Z,4.00
2019-06-08T20:37:01.442Z,4.55
2019-06-08T20:39:29.657Z,5.05
2019-06-08T20:41:59.059Z,4.70
2019-06-08T20:44:30.310Z,4.83
2019-06-08T20:46:59.931Z,5.60
2019-06-08T20:49:29.415Z,4.17
2019-06-08T20:52:00.448Z,5.15
2019-06-08T20:54:30.042Z,4.80
2019-06-08T20:56:59.651Z,4.78
2019-06-08T20:59:33.199Z,4.47
2019-06-08T21:02:00.173Z,4.90
2019-06-08T21:04:29.580Z,4.40
2019-06-08T21:06:59.005Z,4.90
2019-06-08T21:09:28.420Z,4.70
2019-06-08T21:11:58.813Z,4.95
2019-06-08T21:14:28.483Z,4.70
2019-06-08T21:16:58.584Z,4.97
2019-06-08T21:19:28.408Z,4.70
2019-06-08T21:21:59.203Z,5.07
2019-06-08T21:24:28.953Z,5.03
2019-06-08T21:27:00.606Z,5.37
2019-06-08T21:29:46.914Z,5.10
2019-06-08T21:32:02.687Z,5.12
2019-06-08T21:34:31.673Z,4.70
2019-06-08T21:37:01.198Z,4.72
2019-06-08T21:39:30.587Z,5.12
2019-06-08T21:42:03.053Z,5.00
2019-06-08T21:44:31.088Z,5.35
2019-06-08T21:47:01.595Z,4.90
2019-06-08T21:49:31.174Z,5.20
2019-06-08T21:52:01.274Z,4.63
2019-06-08T21:54:30.977Z,5.60
2019-06-08T21:57:01.147Z,4.83
2019-06-08T21:59:30.630Z,5.50
2019-06-08T22:02:03.129Z,4.67
2019-06-08T22:04:31.170Z,5.20
2019-06-08T22:07:01.621Z,5.37
2019-06-08T22:09:31.747Z,4.80
2019-06-08T22:12:01.165Z,4.60
2019-06-08T22:14:30.573Z,5.37
2019-06-08T22:17:01.445Z,5.10
2019-06-08T22:19:31.071Z,5.77
2019-06-08T22:22:02.013Z,5.03
2019-06-08T22:24:31.672Z,5.40
2019-06-08T22:27:01.945Z,5.50
2019-06-08T22:29:31.410Z,4.95
2019-06-08T22:32:00.851Z,4.73
2019-06-08T22:34:30.267Z,4.93
2019-06-08T22:37:00.444Z,5.40
2019-06-08T22:39:30.006Z,5.10
2019-06-08T22:42:01.232Z,5.35
2019-06-08T22:44:30.525Z,5.10
2019-06-08T22:47:01.582Z,5.37
2019-06-08T22:49:31.109Z,4.85
2019-06-08T22:52:01.354Z,5.07
2019-06-08T22:54:31.594Z,5.07
2019-06-08T22:57:02.999Z,5.67
2019-06-08T22:59:32.118Z,4.73
2019-06-08T23:02:04.087Z,4.90
2019-06-08T23:04:32.631Z,4.90
2019-06-08T23:07:04.534Z,4.70
2019-06-08T23:09:33.088Z,4.90
2019-06-08T23:12:04.653Z,4.93
2019-06-08T23:14:33.577Z,5.13
2019-06-08T23:17:03.997Z,4.70
2019-06-08T23:19:34.086Z,4.67
2019-06-08T23:22:04.033Z,4.70
2019-06-08T23:24:33.544Z,4.57
2019-06-08T23:27:04.164Z,5.17
2019-06-08T23:29:32.578Z,4.70
2019-06-08T23:32:04.376Z,5.37
2019-06-08T23:34:33.115Z,5.60
2019-06-08T23:37:05.684Z,4.97
2019-06-08T23:39:33.661Z,4.85
2019-06-08T23:42:03.732Z,4.67
2019-06-08T23:44:33.212Z,4.87
2019-06-08T23:47:03.207Z,5.23
2019-06-08T23:49:33.833Z,5.43
2019-06-08T23:52:04.331Z,4.72
2019-06-08T23:54:37.055Z,4.65
2019-06-08T23:57:09.194Z,4.70
2019-06-08T23:59:37.736Z,5.30
